Time;durP1;ratioP1;P1;durP2;ratioP2;P2;SDS_P1;SDS_P2;PMS_P1;PMS_P2;Temp;Humidity;BMP_temperature;BMP_pressure;BME280_temperature;BME280_humidity;BME280_pressure;Samples;Min_cycle;Max_cycle;Signal;HPM_P1;HPM_P2
2021/06/08 00:02:14;;;;;;;22.75;10.90;;;;;;;14.61;50.17;99122.20;126022;1092;102903;-79
2021/06/08 00:04:43;;;;;;;28.13;13.40;;;;;;;14.42;50.23;99133.69;125797;1093;102965;-78
2021/06/08 00:07:12;;;;;;;23.80;12.10;;;;;;;14.28;50.06;99126.84;126013;1093;102988;-79
2021/06/08 00:09:41;;;;;;;26.03;11.73;;;;;;;14.23;50.15;99131.78;126041;1093;103002;-80
2021/06/08 00:12:11;;;;;;;26.03;12.07;;;;;;;14.12;50.31;99128.20;125938;1093;102927;-80
2021/06/08 00:14:39;;;;;;;25.63;12.87;;;;;;;14.12;50.70;99128.20;125889;1093;103043;-80
2021/06/08 00:17:08;;;;;;;23.33;11.97;;;;;;;14.17;50.74;99125.11;125987;1093;102912;-81
2021/06/08 00:19:37;;;;;;;24.07;11.77;;;;;;;14.20;50.70;99127.52;126017;1092;102907;-82
2021/06/08 00:22:05;;;;;;;22.40;11.33;;;;;;;14.23;50.85;99121.91;126024;1092;102913;-81
2021/06/08 00:24:33;;;;;;;26.07;12.50;;;;;;;14.23;50.76;99121.08;125974;1091;102942;-81
2021/06/08 00:27:03;;;;;;;19.60;9.40;;;;;;;14.25;50.97;99124.47;125982;1091;103402;-81
2021/06/08 00:29:31;;;;;;;21.93;11.27;;;;;;;14.27;50.97;99115.31;125948;1092;102905;-82
2021/06/08 00:31:59;;;;;;;24.57;10.30;;;;;;;14.24;51.27;99114.74;126026;1092;102968;-81
2021/06/08 00:34:28;;;;;;;23.33;10.40;;;;;;;14.20;51.25;99115.98;125973;1091;102908;-81
2021/06/08 00:36:57;;;;;;;21.87;10.47;;;;;;;14.21;51.37;99113.17;125913;1092;102953;-82
2021/06/08 00:39:25;;;;;;;23.17;10.53;;;;;;;14.25;51.57;99111.09;125963;1092;103006;-80
2021/06/08 00:41:54;;;;;;;21.87;9.57;;;;;;;14.27;51.40;99112.64;125960;1091;102926;-80
2021/06/08 00:44:22;;;;;;;22.07;10.30;;;;;;;14.30;51.67;99108.83;125993;1093;103002;-81
2021/06/08 00:46:52;;;;;;;24.70;10.90;;;;;;;14.32;51.64;99109.55;125989;1092;102965;-81
2021/06/08 00:49:25;;;;;;;23.70;11.70;;;;;;;14.29;51.62;99107.14;125958;1092;102904;-81
2021/06/08 00:51:54;;;;;;;24.17;11.13;;;;;;;14.29;51.71;99102.64;126034;1092;103003;-80
2021/06/08 00:54:22;;;;;;;23.70;11.60;;;;;;;14.31;51.86;99098.99;125986;1093;102994;-79
2021/06/08 00:56:51;;;;;;;21.37;10.00;;;;;;;14.31;51.73;99104.34;126016;1092;103041;-81
2021/06/08 00:59:20;;;;;;;21.17;10.37;;;;;;;14.31;51.94;99093.64;125951;1091;102734;-80
2021/06/08 01:01:48;;;;;;;22.07;10.27;;;;;;;14.18;51.93;99101.90;125965;1093;102942;-81
2021/06/08 01:04:17;;;;;;;20.47;10.07;;;;;;;14.15;52.08;99100.33;126066;1093;103005;-81
2021/06/08 01:06:48;;;;;;;25.00;11.57;;;;;;;14.05;52.19;99097.61;125989;1093;102935;-81
2021/06/08 01:09:20;;;;;;;22.17;12.10;;;;;;;13.83;51.75;99096.81;125972;1092;102927;-82
2021/06/08 01:11:48;;;;;;;22.70;12.07;;;;;;;13.72;52.23;99098.69;125960;1093;102895;-81
2021/06/08 01:14:17;;;;;;;24.20;12.23;;;;;;;13.58;51.83;99102.53;125910;1092;103011;-79
2021/06/08 01:16:46;;;;;;;26.33;12.83;;;;;;;13.31;51.89;99101.20;125972;1092;103010;-78
2021/06/08 01:19:16;;;;;;;24.50;13.37;;;;;;;13.15;53.01;99101.63;125969;1091;103374;-79
2021/06/08 01:21:45;;;;;;;26.53;13.07;;;;;;;12.92;52.65;99102.55;125967;1093;103032;-77
2021/06/08 01:24:13;;;;;;;25.33;13.27;;;;;;;12.73;52.98;99102.34;125985;1092;103503;-79
2021/06/08 01:26:42;;;;;;;24.23;13.67;;;;;;;12.56;53.45;99104.58;125967;1093;103524;-80
2021/06/08 01:29:11;;;;;;;24.97;12.63;;;;;;;12.43;53.14;99094.02;125920;1091;103020;-80
2021/06/08 01:31:41;;;;;;;24.57;12.17;;;;;;;12.42;53.29;99103.02;125986;1091;103052;-79
2021/06/08 01:34:15;;;;;;;23.10;11.80;;;;;;;12.47;53.28;99098.14;126013;1091;103036;-80
2021/06/08 01:36:45;;;;;;;22.90;11.90;;;;;;;12.51;53.35;99093.42;126042;1091;103207;-80
2021/06/08 01:39:14;;;;;;;24.30;12.57;;;;;;;12.57;53.64;99095.59;126035;1092;103022;-80
2021/06/08 01:41:43;;;;;;;23.43;12.00;;;;;;;12.66;53.62;99096.66;125979;1092;103020;-80
2021/06/08 01:44:14;;;;;;;25.43;11.53;;;;;;;12.72;53.79;99093.50;125952;1093;102933;-78
2021/06/08 01:46:43;;;;;;;23.13;12.50;;;;;;;12.71;53.66;99091.81;125936;1093;103025;-79
2021/06/08 01:49:11;;;;;;;27.67;12.57;;;;;;;12.72;53.69;99092.64;125979;1093;102706;-78
2021/06/08 01:51:40;;;;;;;23.63;11.60;;;;;;;12.75;53.88;99092.39;125987;1093;103003;-78
2021/06/08 01:54:34;;;;;;;25.13;12.30;;;;;;;12.79;54.09;99099.17;125952;1092;102910;-80
2021/06/08 01:57:30;;;;;;;26.47;11.97;;;;;;;12.81;53.88;99091.90;125977;1092;103052;-80
2021/06/08 01:59:58;;;;;;;24.90;11.73;;;;;;;12.84;54.16;99104.16;125967;1092;103413;-80
2021/06/08 02:02:45;;;;;;;24.37;13.13;;;;;;;12.76;53.94;99099.42;125984;1093;102939;-79
2021/06/08 02:05:35;;;;;;;22.80;11.40;;;;;;;12.60;53.91;99100.69;125927;1093;102994;-79
2021/06/08 02:08:15;;;;;;;23.60;12.90;;;;;;;12.47;53.99;99099.97;126025;1093;103055;-81
2021/06/08 02:10:53;;;;;;;23.17;13.27;;;;;;;12.27;53.97;99096.23;125961;1093;102928;-80
2021/06/08 02:14:17;;;;;;;26.47;13.57;;;;;;;12.08;54.20;99097.67;125975;1091;102947;-79
2021/06/08 02:16:50;;;;;;;24.07;12.53;;;;;;;11.92;54.54;99100.66;125711;1092;102904;-78
2021/06/08 02:19:24;;;;;;;23.78;12.98;;;;;;;11.95;54.76;99113.75;125938;1091;103028;-79
2021/06/08 02:21:56;;;;;;;24.40;11.90;;;;;;;11.99;54.68;99112.58;126287;1093;103628;-78
2021/06/08 02:24:26;;;;;;;24.80;14.73;;;;;;;11.89;54.67;99117.75;125998;1092;103151;-79
2021/06/08 02:27:08;;;;;;;23.77;11.93;;;;;;;11.87;54.97;99117.02;126029;1092;102898;-78
2021/06/08 02:29:41;;;;;;;22.73;13.17;;;;;;;11.90;55.30;99114.12;126085;1092;103058;-78
2021/06/08 02:32:11;;;;;;;30.03;13.30;;;;;;;11.98;55.28;99110.02;125919;1091;102994;-78
2021/06/08 02:34:40;;;;;;;24.03;13.17;;;;;;;12.03;55.33;99111.38;126010;1093;103008;-80
2021/06/08 02:37:10;;;;;;;24.37;12.07;;;;;;;12.10;55.49;99105.56;125953;1092;103005;-79
2021/06/08 02:39:41;;;;;;;24.67;13.00;;;;;;;12.15;55.69;99111.39;126021;1093;103023;-80
2021/06/08 02:42:12;;;;;;;25.23;11.77;;;;;;;12.20;55.57;99110.05;125931;1093;103074;-80
2021/06/08 02:44:43;;;;;;;22.60;11.73;;;;;;;12.26;55.66;99111.36;126004;1093;102961;-80
2021/06/08 02:47:13;;;;;;;22.77;12.83;;;;;;;12.29;55.65;99100.45;126023;1092;102913;-78
2021/06/08 02:49:43;;;;;;;23.03;12.00;;;;;;;12.27;55.69;99102.39;126021;1093;102908;-78
2021/06/08 02:52:12;;;;;;;25.50;14.07;;;;;;;12.27;55.83;99105.06;126115;1092;103003;-78
2021/06/08 02:54:42;;;;;;;23.43;12.43;;;;;;;12.29;55.82;99104.95;126069;1092;103049;-77
2021/06/08 02:57:11;;;;;;;24.57;11.93;;;;;;;12.30;55.99;99106.66;125960;1091;102940;-79
2021/06/08 02:59:43;;;;;;;28.55;12.30;;;;;;;12.33;56.08;99109.08;125991;1091;102944;-79
2021/06/08 03:02:15;;;;;;;25.07;10.93;;;;;;;12.36;56.01;99107.01;126095;1093;102943;-80
2021/06/08 03:04:57;;;;;;;19.80;10.20;;;;;;;12.39;55.95;99113.06;126076;1092;103008;-77
2021/06/08 03:07:27;;;;;;;24.40;11.95;;;;;;;12.42;56.16;99116.36;126138;1093;102904;-81
2021/06/08 03:10:09;;;;;;;24.37;11.63;;;;;;;12.47;56.25;99119.48;126086;1093;103034;-79
2021/06/08 03:12:43;;;;;;;22.30;11.70;;;;;;;12.50;56.14;99129.08;126132;1092;102985;-79
2021/06/08 03:15:16;;;;;;;21.97;12.60;;;;;;;12.52;56.40;99124.47;126101;1092;102930;-80
2021/06/08 03:17:45;;;;;;;22.57;11.33;;;;;;;12.58;56.50;99131.98;125984;1092;102918;-81
2021/06/08 03:20:24;;;;;;;22.90;11.47;;;;;;;12.67;56.61;99130.39;125964;1091;102921;-82
2021/06/08 03:22:57;;;;;;;20.10;10.63;;;;;;;12.70;56.57;99138.15;125940;1093;102910;-80
2021/06/08 03:25:29;;;;;;;21.67;11.40;;;;;;;12.78;56.38;99137.52;126179;1092;102991;-83
2021/06/08 03:28:00;;;;;;;21.97;10.67;;;;;;;12.85;56.69;99148.53;125922;1092;102933;-79
2021/06/08 03:30:30;;;;;;;22.13;11.97;;;;;;;12.91;56.62;99146.23;125979;1093;102904;-77
2021/06/08 03:32:58;;;;;;;24.57;10.37;;;;;;;12.94;56.29;99137.98;126054;1093;103119;-80
2021/06/08 03:35:30;;;;;;;24.03;11.27;;;;;;;12.93;56.82;99140.76;125973;1093;103354;-78
2021/06/08 03:38:00;;;;;;;23.97;11.50;;;;;;;12.98;56.76;99143.08;125979;1093;102929;-80
2021/06/08 03:40:30;;;;;;;20.30;10.87;;;;;;;13.04;56.90;99145.25;125998;1093;102994;-79
2021/06/08 03:43:01;;;;;;;21.93;10.33;;;;;;;13.09;56.73;99145.69;126017;1093;103408;-80
2021/06/08 03:45:31;;;;;;;20.87;10.37;;;;;;;13.16;56.97;99148.73;125995;1091;102909;-79
2021/06/08 03:48:02;;;;;;;22.27;10.13;;;;;;;13.22;57.01;99145.55;125986;1093;103077;-78
2021/06/08 03:50:32;;;;;;;24.00;10.77;;;;;;;13.25;57.22;99151.48;125977;1093;103061;-79
2021/06/08 03:53:03;;;;;;;20.43;10.93;;;;;;;13.34;57.18;99162.38;126090;1092;102985;-78
2021/06/08 03:55:32;;;;;;;21.93;11.30;;;;;;;13.40;57.25;99153.86;125996;1093;103003;-79
2021/06/08 03:58:12;;;;;;;22.17;10.73;;;;;;;13.46;57.35;99161.37;126013;1093;102980;-80
2021/06/08 04:00:42;;;;;;;21.97;10.60;;;;;;;13.55;57.34;99165.13;125950;1091;103011;-79
2021/06/08 04:03:12;;;;;;;24.63;11.57;;;;;;;13.62;57.56;99163.63;125977;1092;103518;-79
2021/06/08 04:05:42;;;;;;;22.43;10.93;;;;;;;13.71;57.28;99167.34;126564;1093;103022;-79
2021/06/08 04:08:11;;;;;;;21.53;10.90;;;;;;;13.78;57.53;99165.86;125975;1093;103497;-79
2021/06/08 04:10:42;;;;;;;21.50;10.87;;;;;;;13.87;57.48;99171.38;125991;1093;102930;-80
2021/06/08 04:13:10;;;;;;;19.83;10.03;;;;;;;13.93;57.64;99163.70;125940;1092;102929;-80
2021/06/08 04:15:41;;;;;;;24.73;10.43;;;;;;;14.02;57.61;99172.75;126000;1093;102898;-78
2021/06/08 04:18:11;;;;;;;20.73;8.77;;;;;;;14.09;57.76;99173.93;126001;1092;103074;-80
2021/06/08 04:20:40;;;;;;;21.13;10.00;;;;;;;14.17;57.93;99165.23;126046;1092;102906;-76
2021/06/08 04:23:09;;;;;;;20.03;9.33;;;;;;;14.25;57.62;99164.59;125989;1093;102994;-79
2021/06/08 04:25:38;;;;;;;20.60;9.00;;;;;;;14.34;57.52;99166.45;126103;1092;103086;-81
2021/06/08 04:28:07;;;;;;;19.03;8.27;;;;;;;14.42;57.76;99160.45;125993;1091;102929;-78
2021/06/08 04:30:35;;;;;;;18.30;8.87;;;;;;;14.50;57.40;99165.95;125979;1093;102988;-79
2021/06/08 04:33:04;;;;;;;18.97;8.97;;;;;;;14.58;57.79;99160.78;126021;1092;103002;-79
2021/06/08 04:35:32;;;;;;;19.17;8.27;;;;;;;14.65;57.65;99161.10;125938;1092;103460;-79
2021/06/08 04:38:01;;;;;;;19.50;8.67;;;;;;;14.72;57.74;99156.91;125993;1092;102987;-79
2021/06/08 04:40:31;;;;;;;19.63;8.73;;;;;;;14.80;57.84;99160.73;125982;1092;103078;-79
2021/06/08 04:43:00;;;;;;;18.20;8.13;;;;;;;14.88;57.71;99169.77;126004;1093;102907;-78
2021/06/08 04:45:29;;;;;;;22.00;8.73;;;;;;;14.96;57.68;99168.24;126028;1091;102996;-73
2021/06/08 04:47:58;;;;;;;18.03;8.50;;;;;;;15.05;57.81;99169.27;126049;1092;102936;-76
2021/06/08 04:50:27;;;;;;;16.73;8.77;;;;;;;15.10;57.85;99170.54;125960;1092;103068;-75
2021/06/08 04:52:56;;;;;;;25.50;10.30;;;;;;;15.17;57.87;99173.50;125954;1091;102939;-75
2021/06/08 04:55:25;;;;;;;16.20;7.95;;;;;;;15.24;57.70;99180.00;125999;1092;102939;-74
2021/06/08 04:57:56;;;;;;;18.60;8.60;;;;;;;15.31;57.73;99185.64;126431;1092;103515;-75
2021/06/08 05:00:30;;;;;;;19.43;9.23;;;;;;;15.38;57.86;99177.91;125917;1093;103055;-76
2021/06/08 05:03:09;;;;;;;20.00;9.17;;;;;;;15.47;57.78;99175.23;125904;1091;103013;-75
2021/06/08 05:05:41;;;;;;;21.00;8.80;;;;;;;15.58;57.94;99171.55;125983;1091;102903;-75
2021/06/08 05:08:20;;;;;;;17.25;8.15;;;;;;;15.67;57.81;99171.70;125952;1093;103410;-73
2021/06/08 05:11:14;;;;;;;22.93;8.37;;;;;;;15.76;57.86;99174.36;125985;1092;102908;-73
2021/06/08 05:13:48;;;;;;;20.07;9.57;;;;;;;15.88;57.92;99176.94;125960;1093;103104;-74
2021/06/08 05:16:21;;;;;;;16.77;8.27;;;;;;;15.96;57.99;99169.02;125995;1093;102981;-74
2021/06/08 05:18:55;;;;;;;21.97;8.47;;;;;;;16.04;57.87;99169.16;126022;1093;102929;-74
2021/06/08 05:21:27;;;;;;;18.73;8.53;;;;;;;16.11;57.96;99169.41;126075;1093;103018;-75
2021/06/08 05:23:58;;;;;;;18.85;8.85;;;;;;;16.17;57.91;99165.29;126121;1093;102921;-74
2021/06/08 05:26:31;;;;;;;21.13;8.97;;;;;;;16.20;58.06;99168.55;126077;1093;103026;-74
2021/06/08 05:29:02;;;;;;;19.40;8.70;;;;;;;16.25;57.83;99170.78;125728;1093;102993;-73
2021/06/08 05:31:34;;;;;;;18.43;9.13;;;;;;;16.29;57.93;99166.81;126013;1093;103052;-74
2021/06/08 05:34:04;;;;;;;19.33;8.63;;;;;;;16.34;58.01;99160.99;125972;1093;103084;-74
2021/06/08 05:36:38;;;;;;;19.27;7.90;;;;;;;16.43;58.12;99164.66;125967;1093;102895;-74
2021/06/08 05:39:08;;;;;;;17.37;8.40;;;;;;;16.55;58.10;99170.69;125956;1093;103087;-74
2021/06/08 05:41:37;;;;;;;18.13;8.10;;;;;;;16.67;58.07;99174.88;125922;1093;103123;-75
2021/06/08 05:44:09;;;;;;;19.73;8.97;;;;;;;16.81;58.12;99162.79;125924;1091;102940;-74
2021/06/08 05:46:38;;;;;;;19.80;8.57;;;;;;;16.96;58.35;99160.47;125807;1093;102962;-75
2021/06/08 05:49:09;;;;;;;17.83;7.80;;;;;;;17.11;58.07;99168.86;126110;1093;102913;-74
2021/06/08 05:51:38;;;;;;;20.77;8.60;;;;;;;17.27;58.09;99168.18;125953;1093;103022;-73
2021/06/08 05:54:10;;;;;;;21.27;8.60;;;;;;;17.38;58.42;99161.73;125683;1093;103180;-75
2021/06/08 05:56:39;;;;;;;19.23;8.10;;;;;;;17.48;58.38;99170.57;125688;1093;102938;-76
2021/06/08 05:59:07;;;;;;;18.70;7.80;;;;;;;17.58;58.00;99165.10;125896;1093;103437;-75
2021/06/08 06:01:38;;;;;;;18.73;8.20;;;;;;;17.71;58.04;99159.35;125941;1093;102949;-76
2021/06/08 06:04:07;;;;;;;18.83;8.17;;;;;;;17.86;58.12;99162.33;125971;1093;103504;-79
2021/06/08 06:06:35;;;;;;;15.87;7.70;;;;;;;18.07;58.47;99166.52;125985;1093;103081;-75
2021/06/08 06:09:04;;;;;;;15.83;7.23;;;;;;;18.30;57.92;99169.53;126012;1092;102987;-75
2021/06/08 06:11:35;;;;;;;15.40;6.90;;;;;;;18.52;57.79;99167.31;125940;1093;102913;-76
2021/06/08 06:14:06;;;;;;;16.67;7.43;;;;;;;18.71;57.74;99171.61;125983;1093;103527;-75
2021/06/08 06:16:39;;;;;;;18.73;7.47;;;;;;;18.89;57.71;99160.73;125743;1093;102986;-75
2021/06/08 06:19:09;;;;;;;15.30;7.00;;;;;;;19.06;57.94;99155.40;125933;1093;103313;-75
2021/06/08 06:21:40;;;;;;;20.00;6.67;;;;;;;19.25;58.02;99154.27;125867;1093;102999;-75
2021/06/08 06:24:11;;;;;;;14.70;6.77;;;;;;;19.43;58.05;99164.91;126000;1093;103210;-76
2021/06/08 06:26:42;;;;;;;17.03;6.87;;;;;;;19.58;57.72;99152.45;125971;1093;103087;-76
2021/06/08 06:29:13;;;;;;;16.30;6.97;;;;;;;19.74;57.35;99156.17;125771;1093;102985;-76
2021/06/08 06:31:49;;;;;;;13.57;6.27;;;;;;;19.83;57.67;99162.41;125876;1093;103368;-75
2021/06/08 06:34:20;;;;;;;15.97;6.97;;;;;;;19.89;57.49;99159.06;125823;1093;103009;-75
2021/06/08 06:36:48;;;;;;;17.10;7.23;;;;;;;19.93;57.39;99157.72;125894;1091;102970;-75
2021/06/08 06:39:28;;;;;;;15.07;7.13;;;;;;;20.04;56.95;99156.52;125986;1093;102985;-74
2021/06/08 06:42:01;;;;;;;20.20;7.17;;;;;;;20.20;56.96;99150.23;125979;1092;103006;-74
2021/06/08 06:44:33;;;;;;;16.75;6.93;;;;;;;20.35;56.99;99153.92;125983;1092;102917;-74
2021/06/08 06:47:01;;;;;;;15.93;6.70;;;;;;;20.54;57.12;99146.42;125973;1092;102910;-74
2021/06/08 06:49:30;;;;;;;17.57;7.30;;;;;;;20.78;57.22;99156.32;125970;1093;103016;-74
2021/06/08 06:51:59;;;;;;;17.17;7.50;;;;;;;20.90;56.84;99154.06;126041;1092;102929;-74
2021/06/08 06:54:29;;;;;;;15.07;6.77;;;;;;;21.05;56.77;99146.03;126105;1093;102987;-69
2021/06/08 06:57:00;;;;;;;15.65;7.10;;;;;;;21.36;56.79;99142.48;126025;1093;103411;-73
2021/06/08 06:59:29;;;;;;;15.10;6.83;;;;;;;21.79;56.68;99147.41;125997;1093;102929;-74
2021/06/08 07:01:59;;;;;;;16.87;6.83;;;;;;;22.25;56.79;99140.20;125967;1092;102964;-75
2021/06/08 07:04:28;;;;;;;67.77;8.73;;;;;;;22.78;56.91;99136.56;126046;1092;102932;-73
2021/06/08 07:06:58;;;;;;;20.67;7.90;;;;;;;23.32;56.67;99130.72;126008;1092;102923;-74
2021/06/08 07:09:29;;;;;;;17.53;7.10;;;;;;;23.82;56.73;99138.06;125928;1093;102946;-74
2021/06/08 07:11:58;;;;;;;16.23;6.30;;;;;;;24.18;55.96;99139.83;126023;1091;102934;-73
2021/06/08 07:14:29;;;;;;;15.37;6.40;;;;;;;24.29;55.72;99140.31;125985;1093;103010;-74
2021/06/08 07:16:58;;;;;;;14.50;6.00;;;;;;;24.59;55.53;99138.19;126022;1093;102920;-74
2021/06/08 07:19:28;;;;;;;18.07;6.30;;;;;;;24.84;55.91;99136.87;126004;1091;104442;-74
2021/06/08 07:21:58;;;;;;;12.87;6.13;;;;;;;25.62;55.57;99127.42;125977;1092;103132;-73
2021/06/08 07:24:42;;;;;;;14.85;6.70;;;;;;;26.85;54.88;99127.88;125992;1091;102909;-72
2021/06/08 07:27:13;;;;;;;15.60;6.47;;;;;;;28.06;54.66;99130.64;126001;1093;102930;-74
2021/06/08 07:29:43;;;;;;;14.57;6.40;;;;;;;29.18;54.51;99130.64;126055;1093;102911;-72
2021/06/08 07:32:24;;;;;;;19.73;6.00;;;;;;;29.99;53.78;99135.73;125965;1092;103002;-75
2021/06/08 07:35:02;;;;;;;18.17;6.27;;;;;;;30.54;53.26;99127.37;125949;1093;103017;-75
2021/06/08 07:37:33;;;;;;;15.23;5.93;;;;;;;31.36;52.94;99127.36;125772;1093;103025;-76
2021/06/08 07:40:08;;;;;;;14.90;6.60;;;;;;;32.17;52.78;99132.55;126003;1093;102907;-76
2021/06/08 07:42:43;;;;;;;16.03;5.80;;;;;;;33.00;52.34;99133.67;126026;1093;103051;-75
2021/06/08 07:45:18;;;;;;;16.23;5.70;;;;;;;33.79;52.11;99128.63;125996;1091;102936;-74
2021/06/08 07:47:49;;;;;;;10.43;5.20;;;;;;;34.61;51.52;99130.28;125924;1093;102985;-72
2021/06/08 07:50:29;;;;;;;12.97;5.50;;;;;;;34.82;50.31;99133.95;126023;1093;103027;-74
2021/06/08 07:53:01;;;;;;;10.70;5.20;;;;;;;35.42;50.39;99139.11;126085;1092;102907;-75
2021/06/08 07:55:31;;;;;;;13.10;5.33;;;;;;;35.73;49.29;99136.38;126011;1093;102929;-74
2021/06/08 07:57:59;;;;;;;12.50;5.10;;;;;;;35.83;49.14;99145.78;125966;1092;104545;-76
2021/06/08 08:00:28;;;;;;;11.93;5.77;;;;;;;36.13;48.12;99136.63;125998;1091;103073;-75
2021/06/08 08:03:25;;;;;;;15.87;5.83;;;;;;;36.54;48.35;99144.03;125966;1093;102901;-75
2021/06/08 08:05:50;;;;;;;15.93;5.40;;;;;;;37.11;48.24;99142.96;125992;1092;103005;-75
2021/06/08 08:08:20;;;;;;;13.70;5.23;;;;;;;37.65;47.44;99146.77;125998;1092;102971;-74
2021/06/08 08:10:51;;;;;;;12.85;4.75;;;;;;;37.84;46.53;99141.33;126018;1093;103074;-76
2021/06/08 08:13:40;;;;;;;9.90;4.55;;;;;;;37.75;45.84;99146.69;125963;1091;103003;-75
2021/06/08 08:16:11;;;;;;;10.10;4.57;;;;;;;37.69;45.21;99145.06;125994;1092;102932;-76
2021/06/08 08:18:42;;;;;;;11.77;4.77;;;;;;;37.65;45.05;99144.83;125997;1091;103424;-77
2021/06/08 08:21:14;;;;;;;13.45;4.90;;;;;;;37.47;44.36;99143.59;125979;1092;103025;-75
2021/06/08 08:23:43;;;;;;;10.53;5.50;;;;;;;37.41;43.84;99141.94;125971;1092;103004;-75
2021/06/08 08:26:13;;;;;;;11.73;4.80;;;;;;;37.57;43.00;99145.45;125956;1093;103052;-74
2021/06/08 08:28:43;;;;;;;9.50;5.03;;;;;;;37.87;42.53;99143.52;125988;1093;103010;-75
2021/06/08 08:31:15;;;;;;;11.37;4.57;;;;;;;38.20;42.23;99145.73;126082;1093;102940;-75
2021/06/08 08:33:45;;;;;;;12.23;4.73;;;;;;;38.51;41.13;99140.70;126023;1093;103148;-75
2021/06/08 08:36:16;;;;;;;12.43;4.93;;;;;;;38.25;41.07;99135.39;125955;1092;102942;-74
2021/06/08 08:38:44;;;;;;;;;;;;;;;38.11;39.69;99134.42;126011;1093;102906;-75
2021/06/08 08:41:13;;;;;;;10.83;4.80;;;;;;;37.93;40.22;99136.84;125976;1093;103055;-74
2021/06/08 08:43:46;;;;;;;12.83;5.20;;;;;;;37.95;39.71;99129.05;125927;1092;102929;-74
2021/06/08 08:46:15;;;;;;;13.10;5.20;;;;;;;37.79;39.09;99138.59;126027;1093;103023;-72
2021/06/08 08:48:52;;;;;;;7.97;4.70;;;;;;;37.62;38.73;99133.47;126003;1092;103412;-73
2021/06/08 08:51:27;;;;;;;14.77;5.20;;;;;;;37.79;38.89;99130.27;125918;1092;103156;-73
2021/06/08 08:54:00;;;;;;;10.87;4.63;;;;;;;37.80;37.57;99129.15;126224;1093;103066;-73
2021/06/08 08:56:33;;;;;;;11.90;4.60;;;;;;;37.59;37.36;99139.59;125951;1091;102994;-73
2021/06/08 08:59:10;;;;;;;8.67;4.50;;;;;;;37.58;37.06;99138.78;125997;1093;103020;-74
2021/06/08 09:01:41;;;;;;;11.03;4.80;;;;;;;37.79;37.03;99130.27;126583;1093;103367;-74
2021/06/08 09:04:11;;;;;;;8.33;4.58;;;;;;;37.57;36.71;99130.73;125965;1093;102921;-74
2021/06/08 09:06:40;;;;;;;14.85;5.15;;;;;;;37.78;36.23;99135.00;126027;1093;103074;-75
2021/06/08 09:09:10;;;;;;;13.17;5.17;;;;;;;37.85;36.19;99120.78;126004;1093;103078;-74
2021/06/08 09:11:43;;;;;;;12.50;4.70;;;;;;;37.49;35.49;99132.19;126022;1093;102919;-74
2021/06/08 09:14:16;;;;;;;9.57;5.10;;;;;;;37.56;35.46;99129.08;126042;1093;103112;-78
2021/06/08 09:16:44;;;;;;;9.13;5.00;;;;;;;37.68;35.28;99121.21;125949;1092;102994;-74
2021/06/08 09:19:13;;;;;;;9.73;5.10;;;;;;;37.53;34.80;99122.98;125986;1092;102901;-74
2021/06/08 09:21:45;;;;;;;8.37;4.83;;;;;;;37.49;34.62;99121.09;125913;1092;103000;-73
2021/06/08 09:24:16;;;;;;;7.47;4.20;;;;;;;37.28;34.35;99117.61;125968;1091;103049;-73
2021/06/08 09:27:06;;;;;;;7.33;4.05;;;;;;;36.97;34.12;99115.05;125987;1093;102932;-73
2021/06/08 09:29:43;;;;;;;6.70;3.80;;;;;;;36.96;34.05;99116.98;125971;1092;103018;-72
2021/06/08 09:32:26;;;;;;;11.25;4.00;;;;;;;37.11;33.75;99115.23;125996;1093;103486;-73
2021/06/08 09:34:57;;;;;;;9.33;4.40;;;;;;;36.94;33.39;99114.47;125983;1093;103031;-74
2021/06/08 09:37:31;;;;;;;11.33;3.70;;;;;;;36.88;33.20;99112.84;126042;1093;103498;-74
2021/06/08 09:40:00;;;;;;;14.10;4.60;;;;;;;36.82;33.38;99111.20;125996;1093;102914;-74
2021/06/08 09:42:30;;;;;;;10.33;4.40;;;;;;;36.78;32.93;99104.58;125999;1093;102902;-74
2021/06/08 09:45:12;;;;;;;7.43;4.30;;;;;;;36.54;32.81;99112.72;126021;1093;103492;-74
2021/06/08 09:47:43;;;;;;;9.13;4.00;;;;;;;36.63;32.52;99111.02;126012;1093;102924;-73
2021/06/08 09:50:36;;;;;;;6.23;4.23;;;;;;;36.45;32.40;99113.30;126027;1093;102907;-73
2021/06/08 09:53:20;;;;;;;15.53;4.67;;;;;;;36.34;32.38;99111.67;125990;1093;102935;-73
2021/06/08 09:55:57;;;;;;;10.57;4.33;;;;;;;36.05;32.24;99104.81;125996;1093;103165;-73
2021/06/08 09:58:28;;;;;;;9.73;4.20;;;;;;;35.74;31.43;99096.54;126015;1093;103433;-74
2021/06/08 10:01:09;;;;;;;11.73;4.20;;;;;;;35.35;31.52;99102.60;126005;1093;103000;-74
2021/06/08 10:03:45;;;;;;;12.78;4.18;;;;;;;34.94;31.01;99096.97;125998;1093;103074;-73
2021/06/08 10:06:20;;;;;;;9.03;4.43;;;;;;;34.26;30.59;99102.19;126007;1093;102901;-74
2021/06/08 10:09:04;;;;;;;11.63;4.27;;;;;;;33.82;30.95;99095.00;125968;1092;102905;-74
2021/06/08 10:11:34;;;;;;;9.10;4.50;;;;;;;33.47;30.87;99101.05;125973;1093;102900;-74
2021/06/08 10:14:18;;;;;;;9.87;4.60;;;;;;;33.22;30.71;99099.71;125730;1093;102950;-73
2021/06/08 10:17:01;;;;;;;7.10;4.07;;;;;;;32.80;30.43;99092.92;126028;1091;103036;-75
2021/06/08 10:19:30;;;;;;;;;;;;;;;32.44;30.24;99095.22;126006;1093;103364;-73
2021/06/08 10:21:59;;;;;;;7.07;4.37;;;;;;;32.14;30.30;99097.30;126320;1093;102901;-74
2021/06/08 10:24:29;;;;;;;7.17;3.87;;;;;;;31.91;30.30;99099.14;125731;1092;102931;-74
2021/06/08 10:26:59;;;;;;;7.83;4.37;;;;;;;31.65;30.47;99099.81;125938;1093;102934;-73
2021/06/08 10:29:34;;;;;;;10.57;3.97;;;;;;;31.44;30.04;99091.20;126002;1091;103017;-72
2021/06/08 10:32:03;;;;;;;9.37;4.17;;;;;;;31.38;30.33;99100.47;126016;1093;102923;-74
2021/06/08 10:34:41;;;;;;;8.90;4.53;;;;;;;31.16;29.95;99088.29;125930;1093;102907;-74
2021/06/08 10:37:12;;;;;;;9.33;4.20;;;;;;;30.94;29.98;99098.26;125988;1091;102932;-74
2021/06/08 10:39:41;;;;;;;11.53;4.17;;;;;;;30.66;29.95;99087.02;125964;1092;103053;-72
2021/06/08 10:42:10;;;;;;;6.70;4.40;;;;;;;30.45;30.04;99091.22;126007;1093;102921;-74
2021/06/08 10:44:40;;;;;;;9.33;4.20;;;;;;;30.24;29.74;99085.30;125962;1093;103499;-73
2021/06/08 10:47:32;;;;;;;8.90;4.20;;;;;;;30.05;29.69;99086.50;125910;1092;103050;-72
2021/06/08 10:50:02;;;;;;;7.80;4.60;;;;;;;29.88;29.65;99081.73;125982;1093;102991;-73
2021/06/08 10:52:45;;;;;;;8.53;4.30;;;;;;;29.76;29.82;99076.22;125746;1093;102993;-73
2021/06/08 10:55:15;;;;;;;8.53;4.30;;;;;;;29.63;29.35;99082.77;125984;1093;103039;-73
2021/06/08 10:57:46;;;;;;;9.75;4.20;;;;;;;29.51;29.90;99082.77;126002;1093;103000;-73
2021/06/08 11:00:24;;;;;;;8.05;4.30;;;;;;;29.47;29.69;99076.08;125921;1092;102981;-73
2021/06/08 11:03:00;;;;;;;9.63;4.30;;;;;;;29.47;29.68;99076.08;125962;1092;102914;-73
2021/06/08 11:05:49;;;;;;;6.53;4.10;;;;;;;29.42;29.65;99070.47;125946;1091;103004;-73
2021/06/08 11:08:19;;;;;;;10.77;5.07;;;;;;;29.44;30.30;99073.81;126013;1093;102921;-74
2021/06/08 11:10:54;;;;;;;9.27;4.50;;;;;;;29.44;29.98;99068.33;125736;1092;103010;-72
2021/06/08 11:13:43;;;;;;;7.70;4.80;;;;;;;29.45;29.69;99067.26;125973;1091;103003;-73
2021/06/08 11:16:27;;;;;;;7.63;4.47;;;;;;;29.35;29.84;99070.55;125881;1092;103090;-73
2021/06/08 11:18:56;;;;;;;7.37;4.40;;;;;;;29.24;29.58;99077.68;125960;1093;102878;-72
2021/06/08 11:21:27;;;;;;;9.27;5.10;;;;;;;28.93;29.71;99076.88;125932;1092;102904;-73
2021/06/08 11:23:56;;;;;;;11.37;5.10;;;;;;;28.67;30.24;99073.38;125955;1091;102929;-74
2021/06/08 11:26:45;;;;;;;11.33;5.60;;;;;;;28.43;29.79;99074.34;125931;1093;102985;-73
2021/06/08 11:29:54;;;;;;;11.97;5.47;;;;;;;28.25;29.97;99070.52;125949;1089;102929;-72
2021/06/08 11:32:28;;;;;;;13.13;5.17;;;;;;;28.12;30.14;99067.95;125944;1092;103457;-73